ESSV

Visby Airport

Airport
ICAO code
ESSV
IATA Code
VBY
Summary
ICAO Region
EUR
ICAO Territory
Location

Visby, Gotland,

Serving
Visby
Elevation
164 ft
Coordinates
57° 39' 44" N , 18° 20' 38" E
KCC
Metar
Observation
ESSV 280950Z 07004KT 2700 -RA BKN005 BKN013 03/03 Q1025
Station
Visby Flygplats
Date/Time
2022-11-28 09:50:00
Wind direction
70°
Wind speed
04 kts
Lowest cloud amount
broken clouds
Temperature
3°C
Dew point
3°C
Humidity
100%
QNH
1025 hPa
Weather condition
n/a

Description

Visby Airport is located about 3.5 km north of Visby, Gotland, Sweden.

Climatology

Temperate Marine climate/Oceanic climate (Köppen climate classification Cfb). Moderately cool summer and comparatively warm winter.

Runways

Designator Length Width Surface Rops
10/28 1101 40 GRS No/No
3/21 2000 45 ASP Yes/Yes

Airport map

Aerial View

SKYbrary Partners:

Safety knowledge contributed by: